Terminal Aerodrome Forecast
Issued by NWS Atlanta, GA

Home | Current Version | Previous Version | Text Only | Print | Product List | Glossary On
Versions: 1 2 3 4 5 6 7 8 9 10 11 12 13 14 15 16 17
000
FTUS42 KFFC 271357 AAB
TAFCSG
TAF AMD
KCSG 271357Z 2714/2812 26008KT P6SM BKN015
      TEMPO 2714/2716 SCT025
     FM271600 26010KT P6SM SCT045
     FM280200 25003KT P6SM SCT250=

USA.gov is the U.S. government's official web portal to all federal, state and local government web resources and services.